createdAt,value
2019-03-10T00:02:04.993Z,11.51
2019-03-10T00:04:34.999Z,11.52
2019-03-10T00:07:05.213Z,11.61
2019-03-10T00:09:35.405Z,11.61
2019-03-10T00:12:05.521Z,11.53
2019-03-10T00:14:35.741Z,11.68
2019-03-10T00:17:05.945Z,11.25
2019-03-10T00:19:36.851Z,11.32
2019-03-10T00:22:07.882Z,11.40
2019-03-10T00:24:37.917Z,11.40
2019-03-10T00:27:08.121Z,11.18
2019-03-10T00:29:38.136Z,11.45
2019-03-10T00:32:08.322Z,11.53
2019-03-10T00:34:38.546Z,11.28
2019-03-10T00:37:08.657Z,11.20
2019-03-10T00:40:20.092Z,11.35
2019-03-10T00:43:28.665Z,11.35
2019-03-10T00:46:45.771Z,11.22
2019-03-10T00:50:08.864Z,10.89
2019-03-10T00:52:45.692Z,11.24
2019-03-10T00:55:15.998Z,10.98
2019-03-10T00:57:46.196Z,11.01
2019-03-10T01:00:18.282Z,11.06
2019-03-10T01:02:48.389Z,11.24
2019-03-10T01:05:18.637Z,10.91
2019-03-10T01:07:48.949Z,10.99
2019-03-10T01:10:19.051Z,11.06
2019-03-10T01:12:49.274Z,11.09
2019-03-10T01:15:19.472Z,11.14
2019-03-10T01:17:52.355Z,11.12
2019-03-10T01:20:22.466Z,10.38
2019-03-10T01:22:52.485Z,10.24
2019-03-10T01:25:22.683Z,10.51
2019-03-10T01:27:52.886Z,10.67
2019-03-10T01:30:23.105Z,10.81
2019-03-10T01:33:36.925Z,10.76
2019-03-10T01:36:15.773Z,10.46
2019-03-10T01:38:45.986Z,10.66
2019-03-10T01:41:15.990Z,10.66
2019-03-10T01:43:45.990Z,10.66
2019-03-10T01:46:16.204Z,10.61
2019-03-10T01:48:46.404Z,10.16
2019-03-10T01:51:16.352Z,10.41
2019-03-10T01:53:46.977Z,10.50
2019-03-10T01:56:17.018Z,10.54
2019-03-10T01:58:46.916Z,10.27
2019-03-10T02:01:17.202Z,9.94
2019-03-10T02:03:47.462Z,9.16
2019-03-10T02:06:17.350Z,9.71
2019-03-10T02:08:47.448Z,9.86
2019-03-10T02:11:17.649Z,10.03
2019-03-10T02:13:47.850Z,10.20
2019-03-10T02:16:18.034Z,10.27
2019-03-10T02:18:48.113Z,10.35
2019-03-10T02:21:18.305Z,10.19
2019-03-10T02:23:48.504Z,10.04
2019-03-10T02:26:18.494Z,9.62
2019-03-10T02:28:48.487Z,9.43
2019-03-10T02:31:18.681Z,9.52
2019-03-10T02:33:48.576Z,9.51
2019-03-10T02:36:18.760Z,9.51
2019-03-10T02:38:48.957Z,9.69
2019-03-10T02:41:18.956Z,9.72
2019-03-10T02:43:48.966Z,9.53
2019-03-10T02:46:19.144Z,9.35
2019-03-10T02:48:49.332Z,9.45
2019-03-10T02:51:19.233Z,9.64
2019-03-10T02:53:49.452Z,9.76
2019-03-10T02:56:19.768Z,9.83
2019-03-10T02:58:49.952Z,9.70
2019-03-10T03:01:20.091Z,9.87
2019-03-10T03:03:50.187Z,9.85
2019-03-10T03:06:20.376Z,9.18
2019-03-10T03:08:50.569Z,7.88
2019-03-10T03:11:20.645Z,8.17
2019-03-10T03:13:50.836Z,8.73
2019-03-10T03:16:20.858Z,9.10
2019-03-10T03:18:51.019Z,9.06
2019-03-10T03:21:21.202Z,9.14
2019-03-10T03:23:51.391Z,9.37
2019-03-10T03:26:21.388Z,9.39
2019-03-10T03:28:51.276Z,9.42
2019-03-10T03:31:21.480Z,9.41
2019-03-10T03:33:51.688Z,9.04
2019-03-10T03:36:25.984Z,9.11
2019-03-10T03:39:23.311Z,9.20
2019-03-10T03:41:53.494Z,9.28
2019-03-10T03:44:23.697Z,9.34
2019-03-10T03:46:53.680Z,9.22
2019-03-10T03:49:23.581Z,8.65
2019-03-10T03:51:53.770Z,8.67
2019-03-10T03:54:24.101Z,8.69
2019-03-10T03:56:54.552Z,7.66
2019-03-10T03:59:24.539Z,7.97
2019-03-10T04:02:23.065Z,7.77
2019-03-10T04:04:53.255Z,7.20
2019-03-10T04:07:23.159Z,7.59
2019-03-10T04:09:53.051Z,7.87
2019-03-10T04:12:23.249Z,7.83
2019-03-10T04:14:53.448Z,7.94
2019-03-10T04:17:23.450Z,8.05
2019-03-10T04:19:53.538Z,8.19
2019-03-10T04:22:23.738Z,8.07
2019-03-10T04:24:53.913Z,8.11
2019-03-10T04:27:23.899Z,8.38
2019-03-10T04:29:53.805Z,8.43
2019-03-10T04:32:23.991Z,8.30
2019-03-10T04:34:53.879Z,8.28
2019-03-10T04:37:24.082Z,8.24
2019-03-10T04:39:54.275Z,8.25
2019-03-10T04:42:24.278Z,8.49
2019-03-10T04:44:54.179Z,8.61
2019-03-10T04:47:24.372Z,8.66
2019-03-10T04:49:54.642Z,8.61
2019-03-10T04:52:24.546Z,7.90
2019-03-10T04:55:07.578Z,7.98
2019-03-10T04:57:39.576Z,6.88
2019-03-10T05:00:09.852Z,7.21
2019-03-10T05:02:40.031Z,8.15
2019-03-10T05:05:10.163Z,9.33
2019-03-10T05:07:40.365Z,9.76
2019-03-10T05:10:10.661Z,9.75
2019-03-10T05:12:40.573Z,9.61
2019-03-10T05:15:10.783Z,9.77
2019-03-10T05:17:40.779Z,9.13
2019-03-10T05:20:11.417Z,9.06
2019-03-10T05:22:41.613Z,8.77
2019-03-10T05:25:11.837Z,9.46
2019-03-10T05:27:41.747Z,9.84
2019-03-10T05:30:11.881Z,9.91
2019-03-10T05:32:42.072Z,9.59
2019-03-10T05:35:12.316Z,9.91
2019-03-10T05:37:42.312Z,9.63
2019-03-10T05:40:12.415Z,8.64
2019-03-10T05:42:42.611Z,9.11
2019-03-10T05:45:12.813Z,9.35
2019-03-10T05:47:42.809Z,9.61
2019-03-10T05:50:12.805Z,9.59
2019-03-10T05:52:43.007Z,9.74
2019-03-10T05:55:13.110Z,9.62
2019-03-10T05:57:43.618Z,8.72
2019-03-10T06:00:14.070Z,9.00
2019-03-10T06:02:44.003Z,8.77
2019-03-10T06:05:13.972Z,8.53
2019-03-10T06:07:44.224Z,8.40
2019-03-10T06:10:14.419Z,8.58
2019-03-10T06:12:44.315Z,9.02
2019-03-10T06:15:14.424Z,9.02
2019-03-10T06:17:44.642Z,9.62
2019-03-10T06:20:14.842Z,9.75
2019-03-10T06:22:44.848Z,9.87
2019-03-10T06:25:14.857Z,11.16
2019-03-10T06:27:45.076Z,11.13
2019-03-10T06:30:15.278Z,12.37
2019-03-10T06:32:45.189Z,11.51
2019-03-10T06:35:15.394Z,11.86
2019-03-10T06:37:45.311Z,11.79
2019-03-10T06:40:15.436Z,12.56
2019-03-10T06:42:46.425Z,12.86
2019-03-10T06:45:16.643Z,13.35
2019-03-10T06:47:46.561Z,13.29
2019-03-10T06:50:16.667Z,14.05
2019-03-10T06:52:46.870Z,14.30
2019-03-10T06:55:17.078Z,13.86
2019-03-10T06:57:47.092Z,13.79
2019-03-10T07:00:17.720Z,13.43
2019-03-10T07:02:48.078Z,12.65
2019-03-10T07:05:18.278Z,13.03
2019-03-10T07:07:48.289Z,13.84
2019-03-10T07:10:18.354Z,14.24
2019-03-10T07:12:48.585Z,15.28
2019-03-10T07:15:18.606Z,14.99
2019-03-10T07:17:48.827Z,15.22
2019-03-10T07:20:19.192Z,14.24
2019-03-10T07:22:49.345Z,15.15
2019-03-10T07:25:19.488Z,14.77
2019-03-10T07:28:04.542Z,13.94
2019-03-10T07:30:59.813Z,14.56
2019-03-10T07:33:35.359Z,15.78
2019-03-10T07:36:39.674Z,14.98
2019-03-10T07:39:34.700Z,15.00
2019-03-10T07:42:29.724Z,15.66
2019-03-10T07:45:08.418Z,15.96
2019-03-10T07:48:01.780Z,15.70
2019-03-10T07:51:00.006Z,15.86
2019-03-10T07:53:49.615Z,15.66
2019-03-10T07:56:48.016Z,15.54
2019-03-10T07:59:25.591Z,16.47
2019-03-10T08:02:17.395Z,17.20
2019-03-10T08:05:02.969Z,17.66
2019-03-10T08:07:52.056Z,17.91
2019-03-10T08:10:41.085Z,18.35
2019-03-10T08:13:17.994Z,18.50
2019-03-10T08:15:58.253Z,18.34
2019-03-10T08:18:53.547Z,18.28
2019-03-10T08:21:31.783Z,18.58
2019-03-10T08:24:23.713Z,18.97
2019-03-10T08:27:08.985Z,19.28
2019-03-10T08:30:10.119Z,19.89
2019-03-10T08:32:59.147Z,20.14
2019-03-10T08:35:43.148Z,20.65
2019-03-10T08:38:30.310Z,22.26
2019-03-10T08:41:19.317Z,21.91
2019-03-10T08:44:08.030Z,21.95
2019-03-10T08:47:02.949Z,23.26
2019-03-10T08:49:45.189Z,24.22
2019-03-10T08:52:16.934Z,23.92
2019-03-10T08:55:14.746Z,23.61
2019-03-10T08:58:03.489Z,23.75
2019-03-10T09:00:55.345Z,24.16
2019-03-10T09:03:44.175Z,24.42
2019-03-10T09:06:38.864Z,24.63
2019-03-10T09:09:22.164Z,24.21
2019-03-10T09:12:20.392Z,24.57
2019-03-10T09:15:18.299Z,24.79
2019-03-10T09:18:22.140Z,25.76
2019-03-10T09:21:14.666Z,26.05
2019-03-10T09:24:02.417Z,27.52
2019-03-10T09:26:53.152Z,27.06
2019-03-10T09:29:40.886Z,27.39
2019-03-10T09:32:28.541Z,28.12
2019-03-10T09:35:03.528Z,27.97
2019-03-10T09:37:58.327Z,29.23
2019-03-10T09:41:02.351Z,28.38
2019-03-10T09:43:54.212Z,29.84
2019-03-10T09:46:39.398Z,29.92
2019-03-10T09:49:36.331Z,29.65
2019-03-10T09:52:43.503Z,30.64
2019-03-10T09:55:38.315Z,29.87
2019-03-10T09:58:19.237Z,29.99
2019-03-10T10:01:17.124Z,28.98
2019-03-10T10:04:18.173Z,28.37
2019-03-10T10:07:13.485Z,28.76
2019-03-10T10:09:50.912Z,29.35
2019-03-10T10:12:37.717Z,30.69
2019-03-10T10:15:32.988Z,30.29
2019-03-10T10:18:40.323Z,30.14
2019-03-10T10:21:27.867Z,30.26
2019-03-10T10:24:23.222Z,30.12
2019-03-10T10:27:05.653Z,31.14
2019-03-10T10:29:59.645Z,31.75
2019-03-10T10:33:03.830Z,33.50
2019-03-10T10:36:02.093Z,30.67
2019-03-10T10:38:40.450Z,32.50
2019-03-10T10:41:35.427Z,30.31
2019-03-10T10:44:31.798Z,29.62
2019-03-10T10:47:13.687Z,30.41
2019-03-10T10:50:01.452Z,30.94
2019-03-10T10:52:49.921Z,31.54
2019-03-10T10:55:41.834Z,31.21
2019-03-10T10:58:39.933Z,29.51
2019-03-10T11:01:47.067Z,31.31
2019-03-10T11:04:53.990Z,31.95
2019-03-10T11:07:31.120Z,34.08
2019-03-10T11:10:18.715Z,32.14
2019-03-10T11:13:19.685Z,31.79
2019-03-10T11:15:56.617Z,32.61
2019-03-10T11:18:40.430Z,32.95
2019-03-10T11:21:16.967Z,33.88
2019-03-10T11:24:20.919Z,33.29
2019-03-10T11:27:18.559Z,31.37
2019-03-10T11:30:19.928Z,31.65
2019-03-10T11:33:05.279Z,32.26
2019-03-10T11:35:54.539Z,32.61
2019-03-10T11:38:40.639Z,31.57
2019-03-10T11:41:45.012Z,32.13
2019-03-10T11:44:36.468Z,32.90
2019-03-10T11:47:31.343Z,31.94
2019-03-10T11:50:25.945Z,30.43
2019-03-10T11:53:19.221Z,30.45
2019-03-10T11:55:59.999Z,28.98
2019-03-10T11:58:58.504Z,29.63
2019-03-10T12:01:53.391Z,30.56
2019-03-10T12:04:51.640Z,31.03
2019-03-10T12:07:30.585Z,30.79
2019-03-10T12:10:00.769Z,31.23
2019-03-10T12:12:30.865Z,30.78
2019-03-10T12:15:00.985Z,32.14
2019-03-10T12:17:31.172Z,29.65
2019-03-10T12:20:01.370Z,30.34
2019-03-10T12:22:31.268Z,29.05
2019-03-10T12:25:01.370Z,29.93
2019-03-10T12:27:31.544Z,30.51
2019-03-10T12:30:01.546Z,29.72
2019-03-10T12:32:31.736Z,31.00
2019-03-10T12:35:01.945Z,31.58
2019-03-10T12:37:31.899Z,31.30
2019-03-10T12:40:01.783Z,29.75
2019-03-10T12:42:31.987Z,28.63
2019-03-10T12:45:02.323Z,28.84
2019-03-10T12:47:32.331Z,29.66
2019-03-10T12:50:02.228Z,28.62
2019-03-10T12:52:32.451Z,29.70
2019-03-10T12:55:02.628Z,28.74
2019-03-10T12:57:32.521Z,28.64
2019-03-10T13:00:02.771Z,28.36
2019-03-10T13:02:33.061Z,27.89
2019-03-10T13:05:03.276Z,27.28
2019-03-10T13:07:33.473Z,28.75
2019-03-10T13:10:03.767Z,27.12
2019-03-10T13:12:33.872Z,27.33
2019-03-10T13:15:03.867Z,27.42
2019-03-10T13:17:34.051Z,27.73
2019-03-10T13:20:04.629Z,28.31
2019-03-10T13:22:34.615Z,28.47
2019-03-10T13:25:04.641Z,29.09
2019-03-10T13:27:34.872Z,27.99
2019-03-10T13:30:05.293Z,26.33
2019-03-10T13:32:35.300Z,27.27
2019-03-10T13:35:05.715Z,27.95
2019-03-10T13:37:35.902Z,28.01
2019-03-10T13:40:06.568Z,26.76
2019-03-10T13:42:36.739Z,28.24
2019-03-10T13:45:07.289Z,28.03
2019-03-10T13:47:37.508Z,25.91
2019-03-10T13:50:09.307Z,26.51
2019-03-10T13:52:39.500Z,27.21
2019-03-10T13:55:10.342Z,26.50
2019-03-10T13:57:40.362Z,27.19
2019-03-10T14:00:13.653Z,26.68
2019-03-10T14:02:44.289Z,26.13
2019-03-10T14:05:14.890Z,26.27
2019-03-10T14:07:44.883Z,25.63
2019-03-10T14:10:15.161Z,26.11
2019-03-10T14:12:45.358Z,26.74
2019-03-10T14:15:15.565Z,26.14
2019-03-10T14:17:45.658Z,25.49
2019-03-10T14:20:15.988Z,26.15
2019-03-10T14:22:46.286Z,26.01
2019-03-10T14:25:17.072Z,26.88
2019-03-10T14:27:47.254Z,27.26
2019-03-10T14:30:17.571Z,28.01
2019-03-10T14:32:47.729Z,28.34
2019-03-10T14:35:17.847Z,28.61
2019-03-10T14:37:48.124Z,27.40
2019-03-10T14:40:18.570Z,28.14
2019-03-10T14:42:48.573Z,28.28
2019-03-10T14:45:18.682Z,27.50
2019-03-10T14:47:48.867Z,27.40
2019-03-10T14:50:19.090Z,27.13
2019-03-10T14:52:49.181Z,27.37
2019-03-10T14:55:19.341Z,26.22
2019-03-10T14:57:49.542Z,26.80
2019-03-10T15:00:21.502Z,26.60
2019-03-10T15:02:51.599Z,26.33
2019-03-10T15:05:21.698Z,25.77
2019-03-10T15:07:51.891Z,26.00
2019-03-10T15:10:22.093Z,25.44
2019-03-10T15:12:52.096Z,25.46
2019-03-10T15:15:23.280Z,23.81
2019-03-10T15:17:53.786Z,22.94
2019-03-10T15:20:23.976Z,23.80
2019-03-10T15:22:54.110Z,23.17
2019-03-10T15:25:25.345Z,23.08
2019-03-10T15:27:55.748Z,22.87
2019-03-10T15:30:25.966Z,23.28
2019-03-10T15:32:56.081Z,23.30
2019-03-10T15:35:26.082Z,23.09
2019-03-10T15:37:56.338Z,22.51
2019-03-10T15:40:26.541Z,22.09
2019-03-10T15:42:56.564Z,22.30
2019-03-10T15:45:27.868Z,22.67
2019-03-10T15:47:58.472Z,23.11
2019-03-10T15:50:28.619Z,23.17
2019-03-10T15:52:58.938Z,23.26
2019-03-10T15:55:29.159Z,22.99
2019-03-10T15:57:59.258Z,23.05
2019-03-10T16:00:29.714Z,22.26
2019-03-10T16:03:00.204Z,22.20
2019-03-10T16:05:32.952Z,21.82
2019-03-10T16:08:02.412Z,22.02
2019-03-10T16:10:32.434Z,21.64
2019-03-10T16:13:02.658Z,21.26
2019-03-10T16:15:32.956Z,21.01
2019-03-10T16:18:02.861Z,21.24
2019-03-10T16:20:32.866Z,20.37
2019-03-10T16:23:03.069Z,19.96
2019-03-10T16:25:33.278Z,19.69
2019-03-10T16:28:03.525Z,20.24
2019-03-10T16:30:33.737Z,20.47
2019-03-10T16:33:03.818Z,20.29
2019-03-10T16:35:33.841Z,20.27
2019-03-10T16:38:04.116Z,20.43
2019-03-10T16:40:34.345Z,20.39
2019-03-10T16:43:04.468Z,19.84
2019-03-10T16:45:34.492Z,19.73
2019-03-10T16:48:04.691Z,19.84
2019-03-10T16:50:34.912Z,19.87
2019-03-10T16:53:05.031Z,19.39
2019-03-10T16:55:35.084Z,18.55
2019-03-10T16:58:05.323Z,18.90
2019-03-10T17:00:35.623Z,18.74
2019-03-10T17:03:05.899Z,18.94
2019-03-10T17:05:35.963Z,17.56
2019-03-10T17:08:06.182Z,17.01
2019-03-10T17:10:36.199Z,17.61
2019-03-10T17:13:06.403Z,17.74
2019-03-10T17:15:36.633Z,18.04
2019-03-10T17:18:06.776Z,17.91
2019-03-10T17:20:36.822Z,17.43
2019-03-10T17:23:07.060Z,17.54
2019-03-10T17:25:37.292Z,17.52
2019-03-10T17:28:07.422Z,17.49
2019-03-10T17:30:37.553Z,17.69
2019-03-10T17:33:07.786Z,17.82
2019-03-10T17:35:38.134Z,16.54
2019-03-10T17:38:08.342Z,17.41
2019-03-10T17:40:38.366Z,17.08
2019-03-10T17:43:08.590Z,17.32
2019-03-10T17:45:38.805Z,17.34
2019-03-10T17:48:08.931Z,17.22
2019-03-10T17:50:39.169Z,17.06
2019-03-10T17:53:09.313Z,16.48
2019-03-10T17:55:39.420Z,16.36
2019-03-10T17:58:09.645Z,16.61
2019-03-10T18:00:40.178Z,16.60
2019-03-10T18:03:10.567Z,16.11
2019-03-10T18:05:40.991Z,16.48
2019-03-10T18:08:11.237Z,16.44
2019-03-10T18:10:41.566Z,15.80
2019-03-10T18:13:11.601Z,15.40
2019-03-10T18:15:41.517Z,15.30
2019-03-10T18:18:11.759Z,15.68
2019-03-10T18:20:41.990Z,15.78
2019-03-10T18:23:12.032Z,16.11
2019-03-10T18:25:42.176Z,16.10
2019-03-10T18:28:12.450Z,16.23
2019-03-10T18:30:42.691Z,16.14
2019-03-10T18:33:13.011Z,15.89
2019-03-10T18:35:43.278Z,15.86
2019-03-10T18:38:13.421Z,16.23
2019-03-10T18:40:43.556Z,16.19
2019-03-10T18:43:13.806Z,15.83
2019-03-10T18:45:44.049Z,15.96
2019-03-10T18:48:14.250Z,15.87
2019-03-10T18:50:44.397Z,16.05
2019-03-10T18:53:14.616Z,15.87
2019-03-10T18:55:44.831Z,16.08
2019-03-10T18:58:14.845Z,16.19
2019-03-10T19:00:44.862Z,16.31
2019-03-10T19:03:15.122Z,16.12
2019-03-10T19:05:45.344Z,15.85
2019-03-10T19:08:15.307Z,15.90
2019-03-10T19:10:45.505Z,15.96
2019-03-10T19:13:15.636Z,15.57
2019-03-10T19:15:45.654Z,15.76
2019-03-10T19:18:15.908Z,15.65
2019-03-10T19:20:46.131Z,15.04
2019-03-10T19:23:16.325Z,15.04
2019-03-10T19:25:46.454Z,15.03
2019-03-10T19:28:16.675Z,15.12
2019-03-10T19:30:46.895Z,15.00
2019-03-10T19:33:16.905Z,15.25
2019-03-10T19:35:47.056Z,14.94
2019-03-10T19:38:17.311Z,15.07
2019-03-10T19:40:47.572Z,14.73
2019-03-10T19:43:17.605Z,14.26
2019-03-10T19:45:47.726Z,14.00
2019-03-10T19:48:17.961Z,14.09
2019-03-10T19:50:47.961Z,14.65
2019-03-10T19:53:18.249Z,14.95
2019-03-10T19:55:48.473Z,15.01
2019-03-10T19:58:18.507Z,15.03
2019-03-10T20:00:48.538Z,14.57
2019-03-10T20:03:19.029Z,14.49
2019-03-10T20:05:49.510Z,14.55
2019-03-10T20:08:19.520Z,14.56
2019-03-10T20:10:49.661Z,14.78
2019-03-10T20:13:19.878Z,14.41
2019-03-10T20:15:52.483Z,14.66
2019-03-10T20:18:21.982Z,14.74
2019-03-10T20:20:52.169Z,14.80
2019-03-10T20:23:22.405Z,14.54
2019-03-10T20:25:52.683Z,14.42
2019-03-10T20:28:22.798Z,14.40
2019-03-10T20:30:52.929Z,14.40
2019-03-10T20:33:23.288Z,13.78
2019-03-10T20:35:53.465Z,14.08
2019-03-10T20:38:23.473Z,14.25
2019-03-10T20:40:53.376Z,13.69
2019-03-10T20:43:23.583Z,12.88
2019-03-10T20:45:53.821Z,13.76
2019-03-10T20:48:23.743Z,13.98
2019-03-10T20:50:53.665Z,14.07
2019-03-10T20:53:23.894Z,13.02
2019-03-10T20:55:54.133Z,13.35
2019-03-10T20:58:24.152Z,13.62
2019-03-10T21:00:54.197Z,13.82
2019-03-10T21:03:24.630Z,13.20
2019-03-10T21:05:54.983Z,13.03
2019-03-10T21:08:24.924Z,13.22
2019-03-10T21:10:55.289Z,13.58
2019-03-10T21:13:25.212Z,13.64
2019-03-10T21:15:55.223Z,13.62
2019-03-10T21:18:25.432Z,13.12
2019-03-10T21:20:55.654Z,13.50
2019-03-10T21:23:25.662Z,13.76
2019-03-10T21:25:55.810Z,13.91
2019-03-10T21:28:26.043Z,13.96
2019-03-10T21:30:56.292Z,13.92
2019-03-10T21:33:26.322Z,13.61
2019-03-10T21:35:56.331Z,13.29
2019-03-10T21:38:26.526Z,13.03
2019-03-10T21:40:56.739Z,12.73
2019-03-10T21:43:26.760Z,13.06
2019-03-10T21:45:56.776Z,12.37
2019-03-10T21:48:27.004Z,12.31
2019-03-10T21:50:56.988Z,12.94
2019-03-10T21:53:27.212Z,13.11
2019-03-10T21:55:57.421Z,12.39
2019-03-10T21:58:27.455Z,12.88
2019-03-10T22:00:57.489Z,13.12
2019-03-10T22:03:29.521Z,13.25
2019-03-10T22:05:59.806Z,13.35
2019-03-10T22:08:30.075Z,13.09
2019-03-10T22:11:00.067Z,13.24
2019-03-10T22:13:30.315Z,13.06
2019-03-10T22:16:00.641Z,12.56
2019-03-10T22:18:30.763Z,12.71
2019-03-10T22:21:00.679Z,12.87
2019-03-10T22:23:30.895Z,12.92
2019-03-10T22:26:01.165Z,12.93
2019-03-10T22:28:31.080Z,12.89
2019-03-10T22:31:01.305Z,12.79
2019-03-10T22:33:31.430Z,12.70
2019-03-10T22:36:01.353Z,12.93
2019-03-10T22:38:31.561Z,13.20
2019-03-10T22:41:01.798Z,13.13
2019-03-10T22:43:31.936Z,12.79
2019-03-10T22:46:01.940Z,12.13
2019-03-10T22:48:32.135Z,12.40
2019-03-10T22:51:02.346Z,12.25
2019-03-10T22:53:32.259Z,12.54
2019-03-10T22:56:02.174Z,12.57
2019-03-10T22:58:32.394Z,12.59
2019-03-10T23:01:02.627Z,12.79
2019-03-10T23:03:32.669Z,12.04
2019-03-10T23:06:02.673Z,12.24
2019-03-10T23:08:32.882Z,12.49
2019-03-10T23:11:02.979Z,12.04
2019-03-10T23:13:33.170Z,12.52
2019-03-10T23:16:03.380Z,11.71
2019-03-10T23:18:33.309Z,11.76
2019-03-10T23:21:03.337Z,12.13
2019-03-10T23:23:33.549Z,12.40
2019-03-10T23:26:03.747Z,11.74
2019-03-10T23:28:33.736Z,11.58
2019-03-10T23:31:03.737Z,12.11
2019-03-10T23:33:33.939Z,12.27
2019-03-10T23:36:04.167Z,12.41
2019-03-10T23:38:34.278Z,12.13
2019-03-10T23:41:04.413Z,12.00
2019-03-10T23:43:34.632Z,11.99
2019-03-10T23:46:04.831Z,12.17
2019-03-10T23:48:34.726Z,11.82
2019-03-10T23:51:04.928Z,11.54
2019-03-10T23:53:34.931Z,11.92
2019-03-10T23:56:05.044Z,12.15
2019-03-10T23:58:35.263Z,11.83
